Time,TemperatureF,DewpointF,PressureIn,WindDirection,WindDirectionDegrees,WindSpeedMPH,WindSpeedGustMPH,Humidity,HourlyPrecipIn,Conditions,Clouds,dailyrainin,SolarRadiationWatts/m^2,SoftwareType,DateUTC
2013-10-28 00:22:00,51.0,31.0,-100.00,SSE,149,6.0,8.0,47,-99.99,,,0.00,0.000000,,2013-10-28 05:22:00,
2013-10-28 00:34:00,51.0,31.0,-100.00,SSE,149,6.0,8.0,47,-99.99,,,0.00,0.000000,,2013-10-28 05:34:00,
2013-10-28 00:42:00,51.0,31.0,-100.00,SSE,149,6.0,8.0,47,-99.99,,,0.00,0.000000,,2013-10-28 05:42:00,
2013-10-28 00:53:00,51.0,31.0,-100.00,SSE,149,6.0,8.0,47,-99.99,,,0.00,0.000000,,2013-10-28 05:53:00,
2013-10-28 01:22:00,47.0,37.0,-100.00,NE,43,9.0,14.0,69,0.00,,,0.00,0.000000,,2013-10-28 06:22:00,
2013-10-28 01:32:00,47.0,37.0,-100.00,NE,43,9.0,14.0,69,0.00,,,0.00,0.000000,,2013-10-28 06:32:00,
2013-10-28 01:43:00,47.0,37.0,-100.00,NE,43,9.0,14.0,69,0.00,,,0.00,0.000000,,2013-10-28 06:43:00,
2013-10-28 01:52:00,47.0,37.0,-100.00,NE,43,9.0,14.0,69,0.00,,,0.00,0.000000,,2013-10-28 06:52:00,
2013-10-28 02:22:00,44.0,37.0,-100.00,NE,34,9.0,14.0,76,0.00,,,0.00,0.000000,,2013-10-28 07:22:00,
2013-10-28 02:32:00,44.0,37.0,-100.00,NE,34,9.0,14.0,76,0.00,,,0.00,0.000000,,2013-10-28 07:32:00,
2013-10-28 02:42:00,44.0,37.0,-100.00,NE,34,9.0,14.0,76,0.00,,,0.00,0.000000,,2013-10-28 07:42:00,
2013-10-28 02:52:00,44.0,37.0,-100.00,NE,34,9.0,14.0,76,0.00,,,0.00,0.000000,,2013-10-28 07:52:00,
2013-10-28 03:22:00,44.0,37.0,-100.00,NE,36,10.0,14.0,76,0.00,,,0.00,0.000000,,2013-10-28 08:22:00,
2013-10-28 03:32:00,44.0,37.0,-100.00,NE,36,10.0,14.0,76,0.00,,,0.00,0.000000,,2013-10-28 08:32:00,
2013-10-28 03:42:00,44.0,37.0,-100.00,NE,36,10.0,14.0,76,0.00,,,0.00,0.000000,,2013-10-28 08:42:00,
2013-10-28 03:52:00,44.0,37.0,-100.00,NE,36,10.0,14.0,76,0.00,,,0.00,0.000000,,2013-10-28 08:52:00,
2013-10-28 04:22:00,43.0,36.0,-100.00,NE,45,9.0,15.0,77,0.00,,,0.00,0.000000,,2013-10-28 09:22:00,
2013-10-28 04:33:00,43.0,36.0,-100.00,NE,45,9.0,15.0,77,0.00,,,0.00,0.000000,,2013-10-28 09:33:00,
2013-10-28 04:43:00,43.0,36.0,-100.00,NE,45,9.0,15.0,77,0.00,,,0.00,0.000000,,2013-10-28 09:43:00,
2013-10-28 04:53:00,43.0,36.0,-100.00,NE,45,9.0,15.0,77,0.00,,,0.00,0.000000,,2013-10-28 09:53:00,
2013-10-28 05:23:00,42.0,36.0,-100.00,NNE,30,8.0,13.0,80,0.00,,,0.00,0.000000,,2013-10-28 10:23:00,
2013-10-28 05:33:00,42.0,36.0,-100.00,NNE,30,8.0,13.0,80,0.00,,,0.00,0.000000,,2013-10-28 10:33:00,
2013-10-28 05:43:00,42.0,36.0,-100.00,NNE,30,8.0,13.0,80,0.00,,,0.00,0.000000,,2013-10-28 10:43:00,
2013-10-28 05:53:00,42.0,36.0,-100.00,NNE,30,8.0,13.0,80,0.00,,,0.00,0.000000,,2013-10-28 10:53:00,
2013-10-28 06:22:00,40.0,35.0,-100.00,NNE,33,9.0,14.0,81,0.00,,,0.00,0.000000,,2013-10-28 11:22:00,
2013-10-28 06:33:00,40.0,35.0,-100.00,NNE,33,9.0,14.0,81,0.00,,,0.00,0.000000,,2013-10-28 11:33:00,
2013-10-28 06:42:00,40.0,35.0,-100.00,NNE,33,9.0,14.0,81,0.00,,,0.00,0.000000,,2013-10-28 11:42:00,
2013-10-28 06:52:00,40.0,35.0,-100.00,NNE,33,9.0,14.0,81,0.00,,,0.00,0.000000,,2013-10-28 11:52:00,
2013-10-28 07:21:00,39.0,35.0,-100.00,NNE,22,12.0,17.0,84,0.00,,,0.00,0.000000,,2013-10-28 12:21:00,
2013-10-28 07:32:00,39.0,35.0,-100.00,NNE,22,12.0,17.0,84,0.00,,,0.00,0.000000,,2013-10-28 12:32:00,
2013-10-28 07:42:00,39.0,35.0,-100.00,NNE,22,12.0,17.0,84,0.00,,,0.00,0.000000,,2013-10-28 12:42:00,
2013-10-28 07:52:00,39.0,35.0,-100.00,NNE,22,12.0,17.0,84,0.00,,,0.00,0.000000,,2013-10-28 12:52:00,
2013-10-28 08:22:00,38.0,34.0,-100.00,NE,36,13.0,19.0,84,0.00,,,0.00,0.000000,,2013-10-28 13:22:00,
2013-10-28 08:32:00,38.0,34.0,-100.00,NE,36,13.0,19.0,84,0.00,,,0.00,0.000000,,2013-10-28 13:32:00,
2013-10-28 08:42:00,38.0,34.0,-100.00,NE,36,13.0,19.0,84,0.00,,,0.00,0.000000,,2013-10-28 13:42:00,
2013-10-28 08:52:00,38.0,34.0,-100.00,NE,36,13.0,19.0,84,0.00,,,0.00,0.000000,,2013-10-28 13:52:00,
2013-10-28 09:22:00,39.0,34.0,-100.00,NE,39,14.0,21.0,82,0.00,,,-99.99,0.000000,,2013-10-28 14:22:00,
2013-10-28 09:32:00,39.0,34.0,-100.00,NE,39,14.0,21.0,82,0.00,,,-99.99,0.000000,,2013-10-28 14:32:00,
2013-10-28 09:42:00,39.0,34.0,-100.00,NE,39,14.0,21.0,82,0.00,,,-99.99,0.000000,,2013-10-28 14:42:00,
2013-10-28 09:52:00,39.0,34.0,-100.00,NE,39,14.0,21.0,82,0.00,,,-99.99,0.000000,,2013-10-28 14:52:00,
2013-10-28 10:22:00,42.0,35.0,-100.00,NE,45,16.0,24.0,77,0.00,,,0.00,0.000000,,2013-10-28 15:22:00,
2013-10-28 10:33:00,42.0,35.0,-100.00,NE,45,16.0,24.0,77,0.00,,,0.00,0.000000,,2013-10-28 15:33:00,
2013-10-28 10:43:00,42.0,35.0,-100.00,NE,45,16.0,24.0,77,0.00,,,0.00,0.000000,,2013-10-28 15:43:00,
2013-10-28 10:53:00,42.0,35.0,-100.00,NE,45,16.0,24.0,77,0.00,,,0.00,0.000000,,2013-10-28 15:53:00,
2013-10-28 11:23:00,44.0,35.0,-100.00,NE,46,16.0,24.0,71,0.00,,,0.00,0.000000,,2013-10-28 16:23:00,
2013-10-28 11:33:00,44.0,35.0,-100.00,NE,46,16.0,24.0,71,0.00,,,0.00,0.000000,,2013-10-28 16:33:00,
2013-10-28 11:43:00,44.0,35.0,-100.00,NE,46,16.0,24.0,71,0.00,,,0.00,0.000000,,2013-10-28 16:43:00,
2013-10-28 11:53:00,44.0,35.0,-100.00,NE,46,16.0,24.0,71,0.00,,,0.00,0.000000,,2013-10-28 16:53:00,
2013-10-28 12:23:00,48.0,36.0,-100.00,NE,47,15.0,22.0,64,0.00,,,0.00,0.000000,,2013-10-28 17:23:00,
2013-10-28 12:33:00,48.0,36.0,-100.00,NE,47,15.0,22.0,64,0.00,,,0.00,0.000000,,2013-10-28 17:33:00,
2013-10-28 12:42:00,48.0,36.0,-100.00,NE,47,15.0,22.0,64,0.00,,,0.00,0.000000,,2013-10-28 17:42:00,
2013-10-28 12:52:00,48.0,36.0,-100.00,NE,47,15.0,22.0,64,0.00,,,0.00,0.000000,,2013-10-28 17:52:00,
2013-10-28 13:22:00,48.0,35.0,-100.00,ENE,57,16.0,22.0,61,0.00,,,0.00,0.000000,,2013-10-28 18:22:00,
2013-10-28 13:32:00,48.0,35.0,-100.00,ENE,57,16.0,22.0,61,0.00,,,0.00,0.000000,,2013-10-28 18:32:00,
2013-10-28 13:42:00,48.0,35.0,-100.00,ENE,57,16.0,22.0,61,0.00,,,0.00,0.000000,,2013-10-28 18:42:00,
2013-10-28 13:52:00,48.0,35.0,-100.00,ENE,57,16.0,22.0,61,0.00,,,0.00,0.000000,,2013-10-28 18:52:00,
2013-10-28 14:22:00,50.0,36.0,-100.00,NE,54,16.0,24.0,59,0.00,,,0.00,0.000000,,2013-10-28 19:22:00,
2013-10-28 14:33:00,50.0,36.0,-100.00,NE,54,16.0,24.0,59,0.00,,,0.00,0.000000,,2013-10-28 19:33:00,
2013-10-28 14:42:00,50.0,36.0,-100.00,NE,54,16.0,24.0,59,0.00,,,0.00,0.000000,,2013-10-28 19:42:00,
2013-10-28 14:52:00,50.0,36.0,-100.00,NE,54,16.0,24.0,59,0.00,,,0.00,0.000000,,2013-10-28 19:52:00,
2013-10-28 15:22:00,51.0,36.0,-100.00,ENE,65,14.0,23.0,56,0.00,,,0.00,0.000000,,2013-10-28 20:22:00,
2013-10-28 15:32:00,51.0,36.0,-100.00,ENE,65,14.0,23.0,56,0.00,,,0.00,0.000000,,2013-10-28 20:32:00,
2013-10-28 15:42:00,51.0,36.0,-100.00,ENE,65,14.0,23.0,56,0.00,,,0.00,0.000000,,2013-10-28 20:42:00,
2013-10-28 15:52:00,51.0,36.0,-100.00,ENE,65,14.0,23.0,56,0.00,,,0.00,0.000000,,2013-10-28 20:52:00,
2013-10-28 16:21:00,52.0,37.0,-100.00,ENE,73,14.0,21.0,56,0.00,,,0.00,0.000000,,2013-10-28 21:21:00,
2013-10-28 16:34:00,52.0,37.0,-100.00,ENE,73,14.0,21.0,56,0.00,,,0.00,0.000000,,2013-10-28 21:34:00,
2013-10-28 16:43:00,52.0,37.0,-100.00,ENE,73,14.0,21.0,56,0.00,,,0.00,0.000000,,2013-10-28 21:43:00,
2013-10-28 16:53:00,52.0,37.0,-100.00,ENE,73,14.0,21.0,56,0.00,,,0.00,0.000000,,2013-10-28 21:53:00,
2013-10-28 17:23:00,51.0,36.0,-100.00,ENE,69,15.0,23.0,57,0.00,,,0.00,0.000000,,2013-10-28 22:23:00,
2013-10-28 17:34:00,51.0,36.0,-100.00,ENE,69,15.0,23.0,57,0.00,,,0.00,0.000000,,2013-10-28 22:34:00,
2013-10-28 17:43:00,51.0,36.0,-100.00,ENE,69,15.0,23.0,57,0.00,,,0.00,0.000000,,2013-10-28 22:43:00,
2013-10-28 17:53:00,51.0,36.0,-100.00,ENE,69,15.0,23.0,57,0.00,,,0.00,0.000000,,2013-10-28 22:53:00,
2013-10-28 18:22:00,49.0,36.0,-100.00,NE,55,13.0,20.0,61,0.00,,,0.00,0.000000,,2013-10-28 23:22:00,
2013-10-28 18:34:00,49.0,36.0,-100.00,NE,55,13.0,20.0,61,0.00,,,0.00,0.000000,,2013-10-28 23:34:00,
2013-10-28 18:42:00,49.0,36.0,-100.00,NE,55,13.0,20.0,61,0.00,,,0.00,0.000000,,2013-10-28 23:42:00,
2013-10-28 18:52:00,49.0,36.0,-100.00,NE,55,13.0,20.0,61,0.00,,,0.00,0.000000,,2013-10-28 23:52:00,
2013-10-28 19:22:00,48.0,39.0,-100.00,NE,47,9.0,19.0,72,0.00,,,0.00,0.000000,,2013-10-29 00:22:00,
2013-10-28 19:32:00,48.0,39.0,-100.00,NE,47,9.0,19.0,72,0.00,,,0.00,0.000000,,2013-10-29 00:32:00,
2013-10-28 19:42:00,48.0,39.0,-100.00,NE,47,9.0,19.0,72,0.00,,,0.00,0.000000,,2013-10-29 00:42:00,
2013-10-28 19:52:00,48.0,39.0,-100.00,NE,47,9.0,19.0,72,0.00,,,0.00,0.000000,,2013-10-29 00:52:00,
2013-10-28 20:21:00,48.0,38.0,-100.00,NNE,33,10.0,15.0,69,0.00,,,0.00,0.000000,,2013-10-29 01:21:00,
2013-10-28 20:31:00,48.0,38.0,-100.00,NNE,33,10.0,15.0,69,0.00,,,0.00,0.000000,,2013-10-29 01:31:00,
2013-10-28 20:42:00,48.0,38.0,-100.00,NNE,33,10.0,15.0,69,0.00,,,0.00,0.000000,,2013-10-29 01:42:00,
2013-10-28 20:52:00,48.0,38.0,-100.00,NNE,33,10.0,15.0,69,0.00,,,0.00,0.000000,,2013-10-29 01:52:00,
2013-10-28 21:21:00,48.0,38.0,-100.00,NNE,26,10.0,16.0,67,0.00,,,0.00,0.000000,,2013-10-29 02:21:00,
2013-10-28 21:34:00,48.0,38.0,-100.00,NNE,26,10.0,16.0,67,0.00,,,0.00,0.000000,,2013-10-29 02:34:00,
2013-10-28 21:44:00,48.0,38.0,-100.00,NNE,26,10.0,16.0,67,0.00,,,0.00,0.000000,,2013-10-29 02:44:00,
2013-10-28 21:53:00,48.0,38.0,-100.00,NNE,26,10.0,16.0,67,0.00,,,0.00,0.000000,,2013-10-29 02:53:00,
2013-10-28 22:27:00,46.0,39.0,-100.00,NE,40,12.0,17.0,76,0.00,,,0.00,0.000000,,2013-10-29 03:27:00,
2013-10-28 22:40:00,-999.0,-99.9,-100.00,NE,40,12.0,17.0,76,0.00,,,0.00,0.000000,,2013-10-29 03:40:00,
2013-10-28 22:47:00,46.0,39.0,-100.00,NE,40,12.0,17.0,76,0.00,,,0.00,0.000000,,2013-10-29 03:47:00,
2013-10-28 22:55:00,46.0,39.0,-100.00,NE,40,12.0,17.0,76,0.00,,,0.00,0.000000,,2013-10-29 03:55:00,
2013-10-28 22:56:00,45.0,40.0,-100.00,NE,55,14.0,20.0,81,0.00,,,0.00,0.000000,,2013-10-29 03:56:00,
2013-10-28 23:24:00,45.0,40.0,-100.00,NE,55,14.0,20.0,81,0.00,,,0.00,0.000000,,2013-10-29 04:24:00,
2013-10-28 23:39:00,45.0,40.0,-100.00,NE,55,14.0,20.0,81,0.00,,,0.00,0.000000,,2013-10-29 04:39:00,